Time;durP1;ratioP1;P1;durP2;ratioP2;P2;SDS_P1;SDS_P2;PMS_P1;PMS_P2;Temp;Humidity;BMP_temperature;BMP_pressure;BME280_temperature;BME280_humidity;BME280_pressure;Samples;Min_cycle;Max_cycle;Signal;HPM_P1;HPM_P2
2023/06/03 00:01:04;;;;;;;2.13;1.00;;;12.30;72.30;;;;;;5017901;28;20080;-75
2023/06/03 00:03:33;;;;;;;5.03;0.82;;;12.20;72.00;;;;;;5031685;28;20516;-74
2023/06/03 00:05:59;;;;;;;4.97;0.80;;;12.10;71.90;;;;;;5033364;28;20050;-74
2023/06/03 00:08:26;;;;;;;3.70;1.13;;;12.10;72.60;;;;;;5034178;28;20107;-74
2023/06/03 00:10:54;;;;;;;2.08;0.80;;;12.10;72.20;;;;;;5032636;28;20516;-74
2023/06/03 00:13:20;;;;;;;1.52;0.77;;;12.10;73.00;;;;;;5033015;28;20083;-74
2023/06/03 00:15:46;;;;;;;4.22;0.88;;;12.10;73.20;;;;;;5017392;28;20486;-75
2023/06/03 00:18:12;;;;;;;2.67;0.95;;;12.00;73.30;;;;;;5034121;28;21027;-74
2023/06/03 00:20:38;;;;;;;2.80;1.00;;;12.00;73.30;;;;;;5034512;28;20056;-74
2023/06/03 00:23:06;;;;;;;4.32;1.05;;;12.00;73.30;;;;;;5033645;28;20128;-75
2023/06/03 00:25:34;;;;;;;2.20;0.60;;;11.90;73.10;;;;;;5034411;28;20049;-74
2023/06/03 00:28:04;;;;;;;2.63;0.80;;;11.90;73.40;;;;;;5016472;28;20458;-74
2023/06/03 00:30:31;;;;;;;1.48;0.80;;;11.90;73.20;;;;;;5029191;28;20064;-74
2023/06/03 00:32:56;;;;;;;2.97;0.80;;;11.80;73.70;;;;;;5033567;28;20128;-74
2023/06/03 00:35:23;;;;;;;1.77;0.70;;;11.80;73.60;;;;;;5033761;28;20124;-74
2023/06/03 00:37:48;;;;;;;2.38;0.73;;;11.80;73.50;;;;;;5017555;28;20085;-74
2023/06/03 00:40:14;;;;;;;2.97;1.15;;;11.80;73.90;;;;;;5013649;28;20964;-74
2023/06/03 00:42:41;;;;;;;2.22;0.60;;;11.80;74.60;;;;;;5017356;28;20073;-74
2023/06/03 00:45:07;;;;;;;3.45;1.05;;;11.70;74.30;;;;;;5017314;28;20052;-74
2023/06/03 00:47:33;;;;;;;1.95;0.75;;;11.60;74.80;;;;;;5020003;28;20068;-74
2023/06/03 00:49:59;;;;;;;1.48;0.70;;;11.60;74.60;;;;;;5034067;28;20041;-74
2023/06/03 00:52:25;;;;;;;1.35;0.80;;;11.60;75.10;;;;;;5017322;28;20037;-74
2023/06/03 00:54:52;;;;;;;4.20;1.00;;;11.50;75.50;;;;;;5033522;28;20466;-74
2023/06/03 00:57:19;;;;;;;2.72;1.40;;;11.40;75.80;;;;;;5029795;28;20048;-75
2023/06/03 00:59:45;;;;;;;4.17;1.30;;;11.40;76.30;;;;;;5017375;28;20041;-74
2023/06/03 01:02:12;;;;;;;2.20;1.00;;;11.40;76.70;;;;;;5017191;28;20042;-74
2023/06/03 01:04:38;;;;;;;2.10;1.00;;;11.30;76.40;;;;;;5034113;28;20049;-75
2023/06/03 01:07:11;;;;;;;2.50;1.20;;;11.20;76.20;;;;;;5017273;28;20037;-75
2023/06/03 01:10:08;;;;;;;4.95;1.00;;;11.10;76.00;;;;;;5033668;28;20075;-74
2023/06/03 01:12:37;;;;;;;2.42;0.80;;;11.00;76.80;;;;;;5033145;28;20083;-74
2023/06/03 01:15:07;;;;;;;1.50;0.90;;;11.10;77.20;;;;;;5032919;28;20065;-75
2023/06/03 01:17:35;;;;;;;3.97;1.00;;;11.10;77.30;;;;;;4990762;28;20150;-75
2023/06/03 01:20:01;;;;;;;1.85;0.90;;;11.10;78.00;;;;;;5021809;28;20111;-75
2023/06/03 01:22:28;;;;;;;3.55;1.00;;;11.10;78.60;;;;;;5042951;28;20662;-74
2023/06/03 01:25:16;;;;;;;5.05;0.70;;;11.00;78.50;;;;;;5018099;28;20072;-74
2023/06/03 01:27:43;;;;;;;;;;;11.00;79.00;;;;;;5033489;28;20041;-74
2023/06/03 01:30:12;;;;;;;2.70;1.00;;;11.00;79.20;;;;;;5045426;28;19910;-74
2023/06/03 01:32:38;;;;;;;3.13;1.52;;;10.90;79.40;;;;;;5031911;28;20069;-74
2023/06/03 01:35:06;;;;;;;3.85;1.00;;;10.90;80.00;;;;;;5015445;28;20076;-74
2023/06/03 01:37:32;;;;;;;3.75;1.20;;;10.90;80.50;;;;;;5025321;28;20072;-74
2023/06/03 01:40:00;;;;;;;3.35;1.00;;;10.90;80.10;;;;;;5032079;28;20076;-74
2023/06/03 01:42:26;;;;;;;7.13;1.50;;;10.80;80.50;;;;;;5014499;28;20133;-74
2023/06/03 01:44:52;;;;;;;2.83;1.15;;;10.70;81.10;;;;;;4999588;28;20116;-74
2023/06/03 01:47:19;;;;;;;5.45;1.33;;;10.60;81.50;;;;;;5013015;28;20045;-74
2023/06/03 01:49:45;;;;;;;3.83;1.08;;;10.50;81.90;;;;;;5032674;28;20069;-74
2023/06/03 01:52:11;;;;;;;3.20;1.10;;;10.50;82.30;;;;;;5031442;28;20076;-74
2023/06/03 01:54:37;;;;;;;3.05;0.98;;;10.50;82.30;;;;;;4999803;28;20065;-74
2023/06/03 01:57:03;;;;;;;2.25;1.00;;;10.50;82.70;;;;;;5015246;28;20120;-75
2023/06/03 01:59:29;;;;;;;2.35;1.10;;;10.50;83.90;;;;;;5015515;28;20535;-74
2023/06/03 02:01:58;;;;;;;3.00;1.50;;;10.50;85.30;;;;;;5015224;28;20718;-75
2023/06/03 02:04:26;;;;;;;4.80;1.52;;;10.50;84.40;;;;;;5031776;28;20370;-74
2023/06/03 02:07:01;;;;;;;3.20;1.10;;;10.30;84.50;;;;;;5041453;28;20037;-74
2023/06/03 02:09:27;;;;;;;4.72;1.05;;;10.30;85.20;;;;;;5032109;28;20072;-74
2023/06/03 02:11:57;;;;;;;4.00;1.30;;;10.30;86.10;;;;;;5031865;28;20049;-74
2023/06/03 02:14:27;;;;;;;3.35;1.27;;;10.20;86.30;;;;;;5044331;28;20119;-74
2023/06/03 02:16:56;;;;;;;2.33;0.90;;;10.20;87.10;;;;;;5032012;28;20049;-74
2023/06/03 02:19:25;;;;;;;2.45;1.00;;;10.20;87.60;;;;;;5032012;28;20049;-75
2023/06/03 02:21:54;;;;;;;2.90;1.65;;;10.20;87.90;;;;;;5032029;28;20042;-74
2023/06/03 02:24:22;;;;;;;3.05;1.20;;;10.10;87.90;;;;;;5025900;28;20050;-74
2023/06/03 02:26:52;;;;;;;3.95;1.35;;;10.10;88.10;;;;;;5015563;28;20068;-74
2023/06/03 02:29:22;;;;;;;3.25;1.40;;;10.10;88.50;;;;;;4999417;28;20725;-74
2023/06/03 02:31:48;;;;;;;3.72;1.63;;;10.00;88.30;;;;;;5013222;28;20065;-74
2023/06/03 02:34:14;;;;;;;2.97;1.10;;;10.00;88.70;;;;;;4999485;28;20373;-74
2023/06/03 02:36:40;;;;;;;4.22;1.35;;;10.00;88.60;;;;;;5009333;28;20088;-74
2023/06/03 02:39:09;;;;;;;3.45;1.40;;;9.90;88.90;;;;;;5014905;28;20049;-74
2023/06/03 02:41:36;;;;;;;4.03;1.35;;;9.80;89.00;;;;;;5032232;28;20057;-74
2023/06/03 02:44:02;;;;;;;3.92;1.40;;;9.80;89.30;;;;;;5012890;28;20200;-74
2023/06/03 02:46:28;;;;;;;3.75;0.98;;;9.80;89.50;;;;;;5032204;28;20045;-74
2023/06/03 02:48:54;;;;;;;4.28;1.02;;;9.80;89.80;;;;;;5028086;28;20060;-74
2023/06/03 02:51:20;;;;;;;5.93;1.50;;;9.70;90.20;;;;;;5032412;28;20049;-74
2023/06/03 02:53:46;;;;;;;4.78;1.60;;;9.70;90.20;;;;;;5014973;28;20132;-74
2023/06/03 02:56:11;;;;;;;5.38;1.90;;;9.70;90.40;;;;;;5014992;28;20046;-74
2023/06/03 02:58:37;;;;;;;5.18;1.02;;;9.70;90.70;;;;;;5015185;28;20038;-74
2023/06/03 03:01:03;;;;;;;5.07;1.38;;;9.70;90.70;;;;;;5031857;28;20057;-74
2023/06/03 03:03:29;;;;;;;8.15;1.60;;;9.70;90.80;;;;;;5031497;28;20049;-74
2023/06/03 03:05:56;;;;;;;5.75;1.85;;;9.60;90.90;;;;;;5018946;28;20045;-74
2023/06/03 03:08:22;;;;;;;4.05;2.00;;;9.60;91.10;;;;;;5019183;28;20107;-74
2023/06/03 03:10:49;;;;;;;3.75;1.42;;;9.60;91.20;;;;;;5035816;28;20544;-74
2023/06/03 03:13:14;;;;;;;3.95;1.35;;;9.60;91.40;;;;;;5018620;28;20065;-74
2023/06/03 03:15:40;;;;;;;6.45;1.45;;;9.50;91.50;;;;;;5036023;28;20370;-74
2023/06/03 03:18:06;;;;;;;3.53;1.50;;;9.40;91.40;;;;;;5002068;28;20524;-74
2023/06/03 03:20:32;;;;;;;4.03;1.20;;;9.40;91.50;;;;;;5034777;28;20136;-73
2023/06/03 03:22:58;;;;;;;2.47;1.30;;;9.30;91.40;;;;;;5002713;28;20050;-74
2023/06/03 03:25:24;;;;;;;4.68;1.40;;;9.20;91.50;;;;;;5018944;28;20124;-74
2023/06/03 03:27:50;;;;;;;3.90;1.25;;;9.20;91.60;;;;;;4999874;28;20124;-74
2023/06/03 03:30:15;;;;;;;4.25;1.20;;;9.20;91.80;;;;;;5015627;28;20894;-74
2023/06/03 03:32:42;;;;;;;4.95;1.20;;;9.20;91.70;;;;;;5002142;28;20037;-74
2023/06/03 03:35:13;;;;;;;2.55;1.15;;;9.20;91.90;;;;;;5001911;28;20081;-74
2023/06/03 03:37:39;;;;;;;2.20;1.08;;;9.20;91.90;;;;;;5012872;28;20045;-74
2023/06/03 03:40:10;;;;;;;2.85;1.05;;;9.20;91.90;;;;;;5034898;28;20526;-74
2023/06/03 03:42:36;;;;;;;3.97;1.10;;;9.20;91.80;;;;;;5017843;28;20050;-74
2023/06/03 03:45:02;;;;;;;3.45;1.23;;;9.20;92.00;;;;;;5035473;28;20046;-74
2023/06/03 03:47:28;;;;;;;2.78;1.17;;;9.10;91.90;;;;;;5018726;28;20041;-74
2023/06/03 03:49:54;;;;;;;4.05;1.23;;;9.10;92.00;;;;;;5018602;28;20056;-74
2023/06/03 03:52:26;;;;;;;2.38;1.05;;;9.00;92.00;;;;;;5038672;28;20049;-74
2023/06/03 03:54:54;;;;;;;2.85;1.20;;;9.10;92.20;;;;;;5035477;28;20056;-74
2023/06/03 03:57:20;;;;;;;5.55;1.55;;;9.00;92.30;;;;;;4998880;28;20053;-74
2023/06/03 03:59:46;;;;;;;4.50;1.38;;;8.90;92.50;;;;;;5034687;28;20045;-74
2023/06/03 04:02:11;;;;;;;2.00;1.08;;;8.80;92.70;;;;;;5034370;28;20033;-74
2023/06/03 04:04:43;;;;;;;3.08;1.10;;;8.80;92.60;;;;;;5034982;28;20053;-74
2023/06/03 04:07:11;;;;;;;2.42;1.17;;;8.80;92.70;;;;;;5031890;28;20042;-74
2023/06/03 04:09:39;;;;;;;4.65;1.45;;;8.90;92.70;;;;;;5018424;28;20125;-74
2023/06/03 04:12:24;;;;;;;2.30;1.02;;;8.90;92.50;;;;;;5034664;28;20049;-74
2023/06/03 04:14:51;;;;;;;2.60;1.20;;;8.90;92.50;;;;;;5028826;28;20043;-74
2023/06/03 04:17:20;;;;;;;3.95;1.35;;;8.90;92.60;;;;;;5043566;28;20350;-74
2023/06/03 04:19:48;;;;;;;6.93;1.80;;;8.90;92.70;;;;;;5001618;28;20046;-74
2023/06/03 04:22:21;;;;;;;2.22;1.10;;;8.90;92.90;;;;;;5034410;28;20056;-74
2023/06/03 04:24:53;;;;;;;5.32;1.13;;;9.00;93.10;;;;;;5029488;28;20041;-74
2023/06/03 04:27:19;;;;;;;4.88;1.23;;;9.00;93.20;;;;;;5034654;28;20128;-74
2023/06/03 04:29:45;;;;;;;1.92;1.00;;;9.00;93.30;;;;;;5016944;28;20171;-74
2023/06/03 04:32:10;;;;;;;3.45;1.48;;;9.00;93.30;;;;;;5034205;28;20056;-74
2023/06/03 04:34:48;;;;;;;5.78;1.42;;;9.10;93.40;;;;;;5010900;28;20049;-74
2023/06/03 04:37:14;;;;;;;2.70;1.00;;;9.10;93.70;;;;;;5011299;28;20041;-74
2023/06/03 04:39:40;;;;;;;3.97;1.40;;;9.10;93.60;;;;;;5029642;28;20045;-73
2023/06/03 04:42:07;;;;;;;3.00;1.10;;;9.10;93.70;;;;;;5017468;28;20042;-74
2023/06/03 04:44:34;;;;;;;2.85;1.13;;;9.10;93.80;;;;;;5033540;28;20037;-74
2023/06/03 04:47:00;;;;;;;3.63;1.20;;;9.20;93.80;;;;;;5017519;28;20041;-74
2023/06/03 04:49:27;;;;;;;2.47;1.00;;;9.20;94.00;;;;;;5033029;28;20215;-74
2023/06/03 04:51:53;;;;;;;3.83;1.00;;;9.30;93.90;;;;;;5031107;28;20046;-74
2023/06/03 04:54:23;;;;;;;3.20;1.00;;;9.30;93.80;;;;;;5033392;28;20128;-74
2023/06/03 04:56:52;;;;;;;4.00;1.10;;;9.30;93.80;;;;;;5016310;28;20073;-74
2023/06/03 04:59:18;;;;;;;4.60;1.33;;;9.40;93.70;;;;;;5017613;28;20378;-74
2023/06/03 05:01:44;;;;;;;2.10;1.15;;;9.40;93.70;;;;;;5034341;28;20041;-74
2023/06/03 05:04:13;;;;;;;3.15;1.30;;;9.50;93.70;;;;;;5033790;28;20050;-74
2023/06/03 05:06:39;;;;;;;;;;;9.50;93.60;;;;;;5034388;28;20037;-74
2023/06/03 05:09:05;;;;;;;3.88;1.17;;;9.60;93.70;;;;;;5034413;28;20011;-74
2023/06/03 05:11:31;;;;;;;3.90;1.30;;;9.60;93.20;;;;;;5033344;28;20045;-74
2023/06/03 05:13:58;;;;;;;4.75;1.08;;;9.70;93.10;;;;;;5020272;28;20123;-74
2023/06/03 05:16:24;;;;;;;3.58;1.08;;;9.70;93.10;;;;;;5012186;28;20050;-74
2023/06/03 05:18:50;;;;;;;3.75;1.20;;;9.70;93.20;;;;;;5015564;28;20057;-74
2023/06/03 05:21:19;;;;;;;3.08;1.00;;;9.80;93.30;;;;;;5019732;28;20045;-74
2023/06/03 05:23:45;;;;;;;4.80;1.50;;;9.80;93.20;;;;;;5013980;28;20141;-74
2023/06/03 05:26:12;;;;;;;1.80;1.10;;;9.90;93.30;;;;;;5015447;28;20107;-74
2023/06/03 05:28:37;;;;;;;5.57;1.42;;;9.90;93.30;;;;;;5013185;28;20050;-74
2023/06/03 05:31:03;;;;;;;2.60;1.00;;;9.90;93.40;;;;;;5013734;28;20049;-74
2023/06/03 05:33:31;;;;;;;2.17;1.10;;;10.00;93.70;;;;;;5032804;28;20490;-73
2023/06/03 05:35:57;;;;;;;3.07;1.00;;;10.10;93.80;;;;;;4999778;28;20049;-74
2023/06/03 05:38:24;;;;;;;2.45;1.10;;;10.10;93.90;;;;;;5015769;28;20299;-75
2023/06/03 05:40:51;;;;;;;4.97;1.30;;;10.10;94.00;;;;;;5013321;28;20061;-74
2023/06/03 05:43:20;;;;;;;7.03;1.58;;;10.20;94.00;;;;;;5042824;28;20054;-75
2023/06/03 05:45:46;;;;;;;2.75;0.98;;;10.30;93.70;;;;;;5047792;28;20041;-75
2023/06/03 05:48:12;;;;;;;5.97;1.17;;;10.30;93.90;;;;;;5032508;28;20041;-74
2023/06/03 05:50:39;;;;;;;2.28;1.10;;;10.40;93.90;;;;;;5032912;28;20064;-77
2023/06/03 05:53:05;;;;;;;3.00;1.30;;;10.40;93.80;;;;;;5034127;28;20060;-77
2023/06/03 05:55:31;;;;;;;3.08;1.50;;;10.50;93.80;;;;;;5018107;28;20784;-77
2023/06/03 05:57:57;;;;;;;2.55;1.15;;;10.60;94.00;;;;;;5034202;28;20690;-77
2023/06/03 06:00:22;;;;;;;2.83;1.30;;;10.70;93.90;;;;;;5050983;28;20045;-77
2023/06/03 06:02:48;;;;;;;3.45;1.45;;;10.70;93.40;;;;;;5034052;28;20056;-77
2023/06/03 06:05:14;;;;;;;3.35;1.40;;;10.80;93.30;;;;;;5034278;28;20041;-77
2023/06/03 06:07:41;;;;;;;4.38;1.20;;;10.80;93.20;;;;;;5017745;28;20041;-76
2023/06/03 06:10:08;;;;;;;5.57;1.13;;;10.90;93.20;;;;;;5015922;28;20033;-77
2023/06/03 06:12:36;;;;;;;5.30;1.42;;;11.00;93.30;;;;;;5000845;28;20355;-76
2023/06/03 06:15:02;;;;;;;4.40;1.40;;;11.10;93.50;;;;;;5035517;28;20042;-77
2023/06/03 06:17:27;;;;;;;5.03;1.50;;;11.20;93.00;;;;;;5034507;28;20047;-76
2023/06/03 06:19:53;;;;;;;2.63;1.20;;;11.20;92.70;;;;;;4999815;28;20568;-77
2023/06/03 06:22:19;;;;;;;3.20;1.05;;;11.30;92.90;;;;;;5038758;28;20057;-76
2023/06/03 06:24:44;;;;;;;3.05;1.48;;;11.40;92.90;;;;;;5017841;28;20049;-76
2023/06/03 06:27:10;;;;;;;5.63;1.70;;;11.50;92.80;;;;;;5033802;28;20080;-76
2023/06/03 06:29:36;;;;;;;4.15;1.10;;;11.50;92.40;;;;;;5016512;28;20128;-75
2023/06/03 06:32:03;;;;;;;2.17;1.15;;;11.80;92.10;;;;;;5042242;28;20051;-76
2023/06/03 06:34:31;;;;;;;3.10;1.40;;;12.00;91.80;;;;;;5015103;28;20050;-76
2023/06/03 06:36:58;;;;;;;4.03;1.10;;;12.00;91.70;;;;;;5210308;23;20325;-75
2023/06/03 06:39:33;;;;;;;2.83;1.10;;;12.10;92.10;;;;;;4962737;28;20081;-75
2023/06/03 06:42:10;;;;;;;4.40;1.10;;;12.20;91.90;;;;;;4990536;28;20739;-77
2023/06/03 06:45:10;;;;;;;3.45;1.40;;;12.30;91.70;;;;;;4979972;28;20133;-76
2023/06/03 06:47:36;;;;;;;3.78;1.15;;;12.40;91.10;;;;;;4964550;28;20899;-74
2023/06/03 06:50:04;;;;;;;3.53;1.00;;;12.50;91.20;;;;;;4964131;28;20355;-74
2023/06/03 06:52:30;;;;;;;3.10;1.10;;;12.60;90.90;;;;;;4992268;28;20137;-74
2023/06/03 06:54:58;;;;;;;3.42;1.02;;;12.60;90.80;;;;;;4977082;28;20130;-74
2023/06/03 06:57:24;;;;;;;3.63;1.52;;;12.70;90.90;;;;;;4989314;28;20157;-74
2023/06/03 06:59:53;;;;;;;2.70;1.10;;;12.70;90.70;;;;;;4993234;28;20611;-76
2023/06/03 07:02:19;;;;;;;3.97;1.35;;;12.80;90.80;;;;;;4987191;28;20053;-78
2023/06/03 07:04:49;;;;;;;2.17;0.98;;;12.90;90.40;;;;;;4977546;28;20044;-76
2023/06/03 07:07:15;;;;;;;1.73;1.00;;;13.00;90.50;;;;;;4979845;28;20042;-73
2023/06/03 07:09:41;;;;;;;4.85;1.00;;;13.10;90.50;;;;;;4993510;28;20370;-74
2023/06/03 07:12:08;;;;;;;3.50;1.20;;;13.10;89.80;;;;;;4959582;28;20112;-74
2023/06/03 07:14:35;;;;;;;5.50;1.20;;;13.20;89.00;;;;;;4993362;28;20351;-74
2023/06/03 07:17:02;;;;;;;2.28;1.15;;;13.30;89.10;;;;;;4969508;28;20489;-74
2023/06/03 07:19:37;;;;;;;2.38;0.98;;;13.40;89.70;;;;;;4979695;28;20046;-75
2023/06/03 07:22:06;;;;;;;3.58;1.10;;;13.40;89.50;;;;;;4986762;28;20093;-74
2023/06/03 07:24:37;;;;;;;3.40;1.00;;;13.50;89.40;;;;;;4975881;28;20046;-74
2023/06/03 07:27:06;;;;;;;2.65;1.20;;;13.60;89.40;;;;;;4989623;28;20043;-74
2023/06/03 07:29:36;;;;;;;4.03;0.75;;;13.60;89.00;;;;;;4991585;28;20054;-73
2023/06/03 07:32:01;;;;;;;5.10;1.20;;;13.70;88.60;;;;;;4959640;28;21037;-74
2023/06/03 07:34:27;;;;;;;4.50;0.90;;;13.80;87.00;;;;;;4968567;28;20128;-74
2023/06/03 07:36:57;;;;;;;4.53;1.50;;;13.90;86.10;;;;;;4986149;28;20074;-74
2023/06/03 07:39:25;;;;;;;5.18;1.10;;;14.00;86.00;;;;;;4990286;28;20077;-75
2023/06/03 07:41:51;;;;;;;3.08;1.00;;;14.00;85.30;;;;;;4974577;28;20043;-74
2023/06/03 07:44:41;;;;;;;3.03;0.90;;;14.10;85.80;;;;;;4987635;28;20054;-74
2023/06/03 07:47:08;;;;;;;5.90;2.90;;;14.20;84.70;;;;;;5019339;28;20108;-74
2023/06/03 07:49:34;;;;;;;4.30;2.10;;;14.30;84.90;;;;;;4984176;28;20046;-76
2023/06/03 07:52:00;;;;;;;3.97;1.50;;;14.30;83.20;;;;;;4994154;28;20050;-76
2023/06/03 07:54:30;;;;;;;9.55;1.60;;;14.40;82.10;;;;;;4994136;28;20042;-72
2023/06/03 07:56:58;;;;;;;6.72;3.15;;;14.40;82.00;;;;;;4992756;28;20046;-71
2023/06/03 07:59:24;;;;;;;4.50;2.47;;;14.50;82.00;;;;;;4981141;28;20525;-71
2023/06/03 08:01:51;;;;;;;6.25;2.58;;;14.60;81.30;;;;;;4973698;28;20471;-72
2023/06/03 08:04:35;;;;;;;4.57;2.08;;;14.70;82.00;;;;;;4991166;28;20056;-71
2023/06/03 08:07:08;;;;;;;5.63;2.30;;;14.70;81.20;;;;;;4992337;28;20057;-71
2023/06/03 08:09:36;;;;;;;6.35;1.70;;;14.80;80.90;;;;;;4992408;28;20662;-70
2023/06/03 08:12:05;;;;;;;4.93;1.92;;;14.90;80.20;;;;;;4980089;28;20066;-71
2023/06/03 08:14:34;;;;;;;3.13;1.40;;;15.00;80.80;;;;;;4991274;28;20655;-71
2023/06/03 08:17:20;;;;;;;2.95;1.10;;;15.00;80.00;;;;;;4993670;28;20135;-71
2023/06/03 08:19:47;;;;;;;2.50;0.80;;;15.10;78.40;;;;;;4992702;28;20050;-71
2023/06/03 08:22:48;;;;;;;1.48;0.80;;;15.20;77.50;;;;;;4986204;28;20046;-72
2023/06/03 08:25:14;;;;;;;2.22;0.90;;;15.30;74.90;;;;;;4991130;28;20093;-72
2023/06/03 08:27:41;;;;;;;2.00;0.80;;;15.40;75.30;;;;;;4988953;28;20046;-72
2023/06/03 08:30:08;;;;;;;1.63;0.75;;;15.40;75.50;;;;;;4955459;28;20042;-71
2023/06/03 08:32:38;;;;;;;2.60;0.80;;;15.40;73.80;;;;;;4975028;28;20046;-72
2023/06/03 08:35:06;;;;;;;1.40;0.70;;;15.50;74.20;;;;;;4983364;28;20059;-72
2023/06/03 08:37:32;;;;;;;2.53;1.02;;;15.60;72.90;;;;;;4990322;28;20469;-72
2023/06/03 08:39:58;;;;;;;4.60;1.13;;;15.60;74.00;;;;;;4975797;28;20046;-72
2023/06/03 08:42:30;;;;;;;2.15;0.90;;;15.70;72.20;;;;;;4975608;28;20053;-72
2023/06/03 08:45:04;;;;;;;2.88;1.67;;;15.70;73.10;;;;;;4978782;28;20050;-72
2023/06/03 08:47:48;;;;;;;6.32;3.15;;;15.80;73.20;;;;;;4991320;28;20053;-71
2023/06/03 08:50:19;;;;;;;7.18;2.90;;;15.90;71.30;;;;;;4987460;28;20053;-72
2023/06/03 08:52:45;;;;;;;4.75;2.05;;;16.00;72.50;;;;;;4961268;28;20849;-72
2023/06/03 08:55:18;;;;;;;4.13;2.20;;;16.00;71.60;;;;;;4987090;28;20043;-72
2023/06/03 08:58:19;;;;;;;4.85;2.33;;;16.10;72.00;;;;;;4959438;28;20089;-72
2023/06/03 09:00:47;;;;;;;4.75;1.48;;;16.20;71.30;;;;;;4989467;28;20050;-72
2023/06/03 09:03:16;;;;;;;2.90;1.60;;;16.20;70.50;;;;;;4986542;28;20056;-72
2023/06/03 09:05:42;;;;;;;3.25;0.95;;;16.30;70.70;;;;;;4953506;28;20485;-72
2023/06/03 09:08:08;;;;;;;1.95;0.90;;;16.30;69.10;;;;;;4977893;28;20042;-72
2023/06/03 09:10:34;;;;;;;2.08;0.93;;;16.40;67.40;;;;;;4990347;28;20100;-72
2023/06/03 09:13:01;;;;;;;1.77;0.82;;;16.40;68.10;;;;;;4943069;28;20053;-72
2023/06/03 09:15:37;;;;;;;1.90;1.00;;;16.50;66.70;;;;;;4964858;28;20050;-72
2023/06/03 09:18:03;;;;;;;2.47;0.70;;;16.50;67.70;;;;;;4987798;28;20051;-72
2023/06/03 09:20:29;;;;;;;2.47;0.90;;;16.60;65.40;;;;;;4987446;28;20060;-72
2023/06/03 09:22:55;;;;;;;3.72;1.15;;;16.60;66.20;;;;;;4997388;28;20042;-72
2023/06/03 09:25:21;;;;;;;3.95;1.00;;;16.70;66.30;;;;;;4981044;28;20047;-71
2023/06/03 09:27:48;;;;;;;4.65;1.17;;;16.70;65.40;;;;;;4991061;28;20046;-71
2023/06/03 09:30:15;;;;;;;3.65;1.38;;;16.70;66.10;;;;;;4974665;28;20125;-70
2023/06/03 09:32:41;;;;;;;3.53;1.40;;;16.80;65.50;;;;;;4975590;28;20629;-75
2023/06/03 09:35:07;;;;;;;2.05;1.00;;;16.90;66.20;;;;;;4972644;28;20046;-74
2023/06/03 09:37:36;;;;;;;2.03;1.08;;;17.00;66.30;;;;;;4974035;28;20663;-74
2023/06/03 09:40:05;;;;;;;4.70;0.77;;;17.00;64.40;;;;;;4976709;28;20061;-74
2023/06/03 09:42:45;;;;;;;1.20;0.77;;;17.10;65.80;;;;;;4990343;28;20371;-74
2023/06/03 09:45:29;;;;;;;2.53;0.85;;;17.20;64.80;;;;;;4989862;28;20046;-76
2023/06/03 09:47:57;;;;;;;3.63;1.00;;;17.20;66.10;;;;;;4978037;28;20042;-76
2023/06/03 09:50:24;;;;;;;3.00;1.00;;;17.30;63.40;;;;;;4982735;28;20113;-77
2023/06/03 09:52:49;;;;;;;3.45;0.90;;;17.40;62.30;;;;;;4978138;28;20498;-76
2023/06/03 09:55:17;;;;;;;1.23;0.90;;;17.40;62.90;;;;;;4981929;28;20133;-76
2023/06/03 09:58:06;;;;;;;3.30;0.60;;;17.50;64.80;;;;;;4978921;28;20046;-77
2023/06/03 10:00:51;;;;;;;2.40;0.57;;;17.60;65.50;;;;;;4978710;28;20286;-77
2023/06/03 10:03:20;;;;;;;3.38;0.73;;;17.70;63.10;;;;;;4988955;28;20058;-76
2023/06/03 10:05:46;;;;;;;3.38;1.15;;;17.80;62.30;;;;;;4993647;28;20458;-76
2023/06/03 10:08:12;;;;;;;1.95;0.70;;;17.90;64.20;;;;;;4995220;28;20046;-76
2023/06/03 10:10:55;;;;;;;1.58;0.70;;;18.00;63.40;;;;;;4956496;28;20132;-76
2023/06/03 10:13:24;;;;;;;2.72;0.80;;;18.10;61.30;;;;;;4994039;28;20050;-76
2023/06/03 10:15:50;;;;;;;2.90;0.70;;;18.10;62.80;;;;;;4978038;28;20053;-77
2023/06/03 10:18:16;;;;;;;3.10;0.75;;;18.20;61.80;;;;;;4981776;28;20137;-77
2023/06/03 10:20:42;;;;;;;1.63;0.70;;;18.30;63.50;;;;;;4962759;28;20133;-76
2023/06/03 10:23:09;;;;;;;2.40;0.88;;;18.30;62.40;;;;;;4971054;28;20046;-75
2023/06/03 10:25:42;;;;;;;1.77;0.80;;;18.40;61.00;;;;;;4976045;28;20053;-75
2023/06/03 10:28:12;;;;;;;1.90;0.80;;;18.60;60.80;;;;;;4969453;28;20046;-74
2023/06/03 10:30:39;;;;;;;1.23;0.70;;;18.60;62.90;;;;;;4992537;28;20057;-73
2023/06/03 10:33:06;;;;;;;2.13;0.70;;;18.70;62.30;;;;;;4991943;28;20081;-73
2023/06/03 10:35:32;;;;;;;2.00;0.88;;;18.80;62.30;;;;;;4976306;28;20046;-74
2023/06/03 10:38:03;;;;;;;2.13;0.88;;;18.90;61.00;;;;;;4976531;28;20058;-73
2023/06/03 10:40:29;;;;;;;3.25;0.68;;;18.90;56.80;;;;;;4989753;28;20047;-74
2023/06/03 10:42:59;;;;;;;1.95;0.70;;;18.90;60.70;;;;;;4980938;28;20392;-73
2023/06/03 10:45:26;;;;;;;2.40;0.65;;;19.00;60.30;;;;;;4965371;28;20049;-74
2023/06/03 10:48:14;;;;;;;1.58;0.70;;;19.10;59.90;;;;;;4972517;28;20042;-73
2023/06/03 10:51:05;;;;;;;1.58;0.73;;;19.30;60.00;;;;;;4982462;28;20475;-74
2023/06/03 10:53:47;;;;;;;2.15;0.60;;;19.40;59.90;;;;;;4991545;28;20056;-74
2023/06/03 10:56:30;;;;;;;0.93;0.63;;;19.50;55.90;;;;;;5013945;28;20113;-74
2023/06/03 10:59:03;;;;;;;1.45;0.88;;;19.60;55.40;;;;;;4992394;28;20478;-75
2023/06/03 11:01:58;;;;;;;2.80;0.80;;;19.60;57.40;;;;;;4992210;28;20363;-75
2023/06/03 11:04:26;;;;;;;1.92;0.75;;;19.80;57.60;;;;;;4993209;28;20042;-75
2023/06/03 11:06:53;;;;;;;1.27;0.75;;;19.80;54.70;;;;;;4969795;28;20043;-75
2023/06/03 11:09:38;;;;;;;1.08;0.60;;;19.80;55.80;;;;;;4992996;28;20049;-74
2023/06/03 11:12:13;;;;;;;2.88;1.08;;;19.70;53.60;;;;;;4976336;28;20140;-76
2023/06/03 11:14:48;;;;;;;3.88;0.75;;;19.60;54.70;;;;;;4985580;28;20139;-74
2023/06/03 11:17:18;;;;;;;4.85;0.60;;;19.60;57.40;;;;;;4975377;28;20054;-75
2023/06/03 11:19:44;;;;;;;2.50;0.68;;;19.80;57.40;;;;;;4991074;28;20829;-75
2023/06/03 11:22:11;;;;;;;3.67;1.00;;;19.90;55.90;;;;;;4992707;28;20115;-74
2023/06/03 11:24:43;;;;;;;2.33;0.73;;;19.90;57.10;;;;;;4976043;28;20724;-74
2023/06/03 11:27:18;;;;;;;3.97;0.90;;;20.00;56.50;;;;;;4996316;28;20100;-74
2023/06/03 11:29:51;;;;;;;5.20;0.80;;;19.90;56.30;;;;;;5013252;28;20383;-74
2023/06/03 11:32:22;;;;;;;3.25;1.08;;;20.10;57.30;;;;;;4995438;28;20651;-74
2023/06/03 11:34:49;;;;;;;2.92;0.80;;;20.20;55.70;;;;;;4960306;28;20368;-74
2023/06/03 11:37:17;;;;;;;2.63;0.80;;;20.30;55.90;;;;;;4979081;28;20067;-75
2023/06/03 11:40:01;;;;;;;4.45;1.00;;;20.30;53.90;;;;;;4993190;28;20053;-75
2023/06/03 11:42:27;;;;;;;3.05;0.73;;;20.40;55.70;;;;;;4992285;28;20042;-75
2023/06/03 11:44:53;;;;;;;2.45;0.68;;;20.50;55.20;;;;;;4982768;28;20050;-76
2023/06/03 11:47:18;;;;;;;2.50;0.75;;;20.50;53.30;;;;;;4995412;28;20050;-75
2023/06/03 11:49:53;;;;;;;1.63;0.73;;;20.60;52.40;;;;;;4955833;28;20038;-76
2023/06/03 11:52:21;;;;;;;3.92;0.85;;;20.30;51.80;;;;;;4984969;28;20043;-76
2023/06/03 11:54:48;;;;;;;;;;;20.40;52.50;;;;;;4987243;28;20049;-75
2023/06/03 11:57:18;;;;;;;4.28;0.85;;;20.50;51.70;;;;;;5000100;28;19928;-75
2023/06/03 11:59:48;;;;;;;2.15;0.80;;;20.50;52.90;;;;;;5000621;28;20057;-76
2023/06/03 12:02:13;;;;;;;1.33;0.68;;;20.70;52.70;;;;;;4989182;28;20054;-77
2023/06/03 12:04:39;;;;;;;1.55;0.70;;;20.80;52.40;;;;;;4986964;28;20109;-76
2023/06/03 12:07:09;;;;;;;2.03;0.70;;;21.00;52.30;;;;;;4996679;28;20046;-76
2023/06/03 12:09:35;;;;;;;2.60;0.93;;;21.10;53.00;;;;;;4982695;28;20744;-76
2023/06/03 12:12:06;;;;;;;2.75;0.60;;;21.20;51.80;;;;;;4995621;28;20042;-75
2023/06/03 12:14:32;;;;;;;1.40;0.82;;;21.20;51.80;;;;;;4979337;28;20047;-76
2023/06/03 12:17:13;;;;;;;1.20;0.60;;;21.10;50.30;;;;;;4994161;28;20054;-76
2023/06/03 12:19:48;;;;;;;1.10;0.70;;;21.10;51.80;;;;;;4984078;28;20046;-76
2023/06/03 12:22:29;;;;;;;4.88;0.77;;;21.10;51.50;;;;;;4978538;28;20156;-76
2023/06/03 12:24:54;;;;;;;2.25;0.93;;;21.10;50.10;;;;;;5011202;28;20054;-76
2023/06/03 12:27:25;;;;;;;1.95;0.93;;;21.00;50.80;;;;;;4978053;28;20046;-76
2023/06/03 12:29:55;;;;;;;0.93;0.68;;;21.00;50.90;;;;;;4986632;28;20049;-76
2023/06/03 12:32:22;;;;;;;2.38;1.27;;;20.90;50.20;;;;;;4991825;28;20046;-76
2023/06/03 12:34:49;;;;;;;1.48;0.80;;;20.90;51.20;;;;;;4976574;28;20046;-76
2023/06/03 12:37:29;;;;;;;2.17;0.90;;;21.00;50.20;;;;;;4989167;28;20066;-76
2023/06/03 12:39:56;;;;;;;2.88;0.77;;;21.00;49.10;;;;;;4973533;28;20053;-76
2023/06/03 12:42:37;;;;;;;3.85;0.82;;;21.00;49.80;;;;;;4995054;28;20064;-76
2023/06/03 12:45:03;;;;;;;2.22;0.80;;;21.10;49.80;;;;;;4943483;28;20493;-76
2023/06/03 12:47:29;;;;;;;1.80;0.80;;;21.30;50.20;;;;;;4975800;28;20046;-76
2023/06/03 12:50:08;;;;;;;2.53;0.70;;;21.50;49.60;;;;;;4975968;28;20447;-76
2023/06/03 12:52:36;;;;;;;1.30;0.77;;;21.60;49.10;;;;;;4977161;28;20042;-76
2023/06/03 12:55:03;;;;;;;1.43;1.00;;;21.30;47.80;;;;;;4983765;28;20202;-77
2023/06/03 12:57:31;;;;;;;1.17;0.70;;;21.20;47.60;;;;;;4975429;28;20296;-76
2023/06/03 13:00:08;;;;;;;2.53;0.80;;;21.20;50.20;;;;;;4980747;28;20273;-76